createdAt,value
2018-10-15T00:01:57.865Z,12.67
2018-10-15T00:04:26.265Z,11.30
2018-10-15T00:06:54.677Z,12.30
2018-10-15T00:09:23.108Z,12.10
2018-10-15T00:11:51.500Z,15.50
2018-10-15T00:14:19.925Z,10.30
2018-10-15T00:16:48.346Z,11.10
2018-10-15T00:19:16.765Z,19.53
2018-10-15T00:21:45.141Z,11.00
2018-10-15T00:24:13.532Z,12.10
2018-10-15T00:26:41.958Z,10.60
2018-10-15T00:29:10.417Z,10.07
2018-10-15T00:31:38.825Z,11.70
2018-10-15T00:34:07.248Z,9.87
2018-10-15T00:36:35.640Z,9.80
2018-10-15T00:39:05.141Z,12.43
2018-10-15T00:41:33.585Z,11.63
2018-10-15T00:44:01.961Z,17.53
2018-10-15T00:46:30.564Z,12.13
2018-10-15T00:48:59.556Z,11.67
2018-10-15T00:51:27.964Z,12.07
2018-10-15T00:53:56.348Z,8.83
2018-10-15T00:56:24.736Z,9.60
2018-10-15T00:58:53.140Z,11.10
2018-10-15T01:01:21.526Z,9.33
2018-10-15T01:03:49.922Z,13.80
2018-10-15T01:06:18.293Z,11.80
2018-10-15T01:08:46.721Z,12.57
2018-10-15T01:11:15.108Z,11.90
2018-10-15T01:13:43.525Z,11.37
2018-10-15T01:16:11.919Z,13.63
2018-10-15T01:18:40.373Z,10.70
2018-10-15T01:21:08.773Z,10.93
2018-10-15T01:23:37.241Z,9.77
2018-10-15T01:26:06.799Z,9.33
2018-10-15T01:28:35.188Z,12.43
2018-10-15T01:31:03.728Z,11.60
2018-10-15T01:33:32.123Z,12.63
2018-10-15T01:36:00.525Z,11.93
2018-10-15T01:38:28.949Z,12.63
2018-10-15T01:40:57.336Z,13.13
2018-10-15T01:43:25.732Z,12.70
2018-10-15T01:45:54.184Z,19.27
2018-10-15T01:48:22.656Z,13.80
2018-10-15T01:50:51.049Z,10.97
2018-10-15T01:53:19.440Z,12.67
2018-10-15T01:55:47.845Z,13.03
2018-10-15T01:58:16.228Z,9.93
2018-10-15T02:00:44.608Z,8.90
2018-10-15T02:03:13.010Z,13.77
2018-10-15T02:05:41.398Z,11.33
2018-10-15T02:08:09.770Z,9.23
2018-10-15T02:10:38.164Z,11.57
2018-10-15T02:13:06.577Z,10.50
2018-10-15T02:15:34.993Z,12.97
2018-10-15T02:18:03.429Z,11.80
2018-10-15T02:20:31.845Z,10.70
2018-10-15T02:23:00.226Z,13.20
2018-10-15T02:25:28.609Z,10.17
2018-10-15T02:27:56.989Z,9.73
2018-10-15T02:30:25.396Z,10.63
2018-10-15T02:32:53.795Z,17.83
2018-10-15T02:35:22.180Z,9.10
2018-10-15T02:37:50.612Z,10.20
2018-10-15T02:40:19.037Z,13.47
2018-10-15T02:42:47.437Z,11.70
2018-10-15T02:45:15.840Z,11.57
2018-10-15T02:47:44.230Z,11.03
2018-10-15T02:50:12.632Z,10.00
2018-10-15T02:52:41.716Z,14.20
2018-10-15T02:55:10.148Z,11.80
2018-10-15T02:57:38.540Z,10.43
2018-10-15T03:00:09.537Z,11.07
2018-10-15T03:02:37.978Z,9.70
2018-10-15T03:05:07.945Z,9.60
2018-10-15T03:07:36.340Z,9.20
2018-10-15T03:10:05.413Z,13.10
2018-10-15T03:12:34.199Z,11.40
2018-10-15T03:15:02.861Z,9.47
2018-10-15T03:17:31.456Z,10.30
2018-10-15T03:19:59.862Z,12.40
2018-10-15T03:22:28.241Z,11.13
2018-10-15T03:24:56.664Z,13.77
2018-10-15T03:27:25.059Z,10.20
2018-10-15T03:29:53.469Z,10.63
2018-10-15T03:32:22.508Z,9.80
2018-10-15T03:34:50.895Z,8.23
2018-10-15T03:37:19.329Z,8.57
2018-10-15T03:39:47.849Z,10.20
2018-10-15T03:42:16.244Z,9.77
2018-10-15T03:44:44.666Z,9.37
2018-10-15T03:47:13.137Z,8.87
2018-10-15T03:49:41.537Z,9.40
2018-10-15T03:52:10.076Z,11.37
2018-10-15T03:54:38.500Z,8.10
2018-10-15T03:57:06.928Z,9.50
2018-10-15T03:59:35.353Z,14.90
2018-10-15T04:02:03.784Z,13.73
2018-10-15T04:04:32.298Z,12.10
2018-10-15T04:07:00.717Z,10.40
2018-10-15T04:09:29.129Z,14.10
2018-10-15T04:11:57.528Z,10.77
2018-10-15T04:14:26.044Z,11.53
2018-10-15T04:16:54.308Z,11.07
2018-10-15T04:19:22.708Z,14.13
2018-10-15T04:21:51.173Z,11.40
2018-10-15T04:24:19.573Z,10.97
2018-10-15T04:26:47.981Z,9.70
2018-10-15T04:29:16.352Z,12.13
2018-10-15T04:31:44.781Z,13.90
2018-10-15T04:34:13.677Z,11.70
2018-10-15T04:36:42.125Z,8.73
2018-10-15T04:39:11.340Z,12.70
2018-10-15T04:41:41.152Z,13.20
2018-10-15T04:44:10.365Z,10.63
2018-10-15T04:46:39.072Z,12.10
2018-10-15T04:49:07.629Z,12.97
2018-10-15T04:51:35.958Z,10.50
2018-10-15T04:54:04.710Z,12.00
2018-10-15T04:56:33.099Z,14.03
2018-10-15T04:59:01.484Z,16.73
2018-10-15T05:01:29.888Z,11.93
2018-10-15T05:03:58.288Z,11.23
2018-10-15T05:06:26.722Z,22.30
2018-10-15T05:08:55.108Z,10.87
2018-10-15T05:11:23.521Z,10.73
2018-10-15T05:13:51.907Z,12.73
2018-10-15T05:16:20.349Z,12.10
2018-10-15T05:18:48.773Z,10.67
2018-10-15T05:21:17.435Z,12.93
2018-10-15T05:23:45.636Z,10.03
2018-10-15T05:26:14.045Z,12.43
2018-10-15T05:28:42.457Z,11.13
2018-10-15T05:31:10.912Z,9.80
2018-10-15T05:33:39.304Z,13.00
2018-10-15T05:36:07.732Z,8.47
2018-10-15T05:38:36.133Z,11.33
2018-10-15T05:41:04.884Z,10.20
2018-10-15T05:43:33.350Z,9.20
2018-10-15T05:46:01.745Z,12.43
2018-10-15T05:48:30.143Z,10.07
2018-10-15T05:50:58.541Z,10.43
2018-10-15T05:53:26.963Z,14.43
2018-10-15T05:55:55.375Z,12.77
2018-10-15T05:58:23.768Z,21.03
2018-10-15T06:00:52.164Z,10.10
2018-10-15T06:03:20.601Z,7.93
2018-10-15T06:05:49.017Z,10.20
2018-10-15T06:08:18.218Z,12.77
2018-10-15T06:10:46.639Z,10.13
2018-10-15T06:13:15.077Z,10.23
2018-10-15T06:15:43.569Z,11.23
2018-10-15T06:18:12.024Z,9.60
2018-10-15T06:20:40.385Z,8.57
2018-10-15T06:23:08.772Z,11.70
2018-10-15T06:25:37.197Z,11.77
2018-10-15T06:28:05.846Z,15.30
2018-10-15T06:30:34.245Z,11.67
2018-10-15T06:33:02.724Z,12.10
2018-10-15T06:35:31.125Z,19.03
2018-10-15T06:37:59.590Z,9.77
2018-10-15T06:40:27.972Z,11.80
2018-10-15T06:42:56.361Z,12.27
2018-10-15T06:45:24.898Z,12.00
2018-10-15T06:47:53.212Z,11.87
2018-10-15T06:50:21.693Z,11.17
2018-10-15T06:52:50.164Z,14.63
2018-10-15T06:55:19.278Z,14.63
2018-10-15T06:57:47.652Z,16.33
2018-10-15T07:00:16.518Z,14.00
2018-10-15T07:02:44.933Z,12.90
2018-10-15T07:05:13.337Z,13.50
2018-10-15T07:07:41.807Z,14.30
2018-10-15T07:10:10.613Z,13.80
2018-10-15T07:12:39.177Z,13.17
2018-10-15T07:15:08.841Z,11.67
2018-10-15T07:17:37.257Z,11.77
2018-10-15T07:20:06.063Z,12.83
2018-10-15T07:22:34.488Z,9.93
2018-10-15T07:25:14.048Z,11.57
2018-10-15T07:27:42.492Z,18.03
2018-10-15T07:30:11.521Z,12.63
2018-10-15T07:32:40.656Z,13.43
2018-10-15T07:35:09.518Z,13.93
2018-10-15T07:37:38.021Z,11.83
2018-10-15T07:40:06.524Z,14.03
2018-10-15T07:42:35.174Z,17.10
2018-10-15T07:45:03.868Z,14.43
2018-10-15T07:47:32.276Z,13.27
2018-10-15T07:50:00.774Z,11.30
2018-10-15T07:52:29.125Z,13.27
2018-10-15T07:54:57.532Z,13.87
2018-10-15T07:57:25.982Z,13.63
2018-10-15T07:59:54.388Z,13.30
2018-10-15T08:02:22.839Z,13.33
2018-10-15T08:04:51.246Z,11.67
2018-10-15T08:07:19.688Z,14.07
2018-10-15T08:09:48.373Z,15.97
2018-10-15T08:12:16.864Z,10.67
2018-10-15T08:14:45.349Z,12.37
2018-10-15T08:17:13.704Z,12.30
2018-10-15T08:19:42.189Z,14.00
2018-10-15T08:22:10.752Z,14.10
2018-10-15T08:24:39.133Z,12.73
2018-10-15T08:27:07.536Z,13.33
2018-10-15T08:29:35.955Z,17.07
2018-10-15T08:32:04.399Z,13.67
2018-10-15T08:34:32.864Z,10.80
2018-10-15T08:37:01.234Z,13.23
2018-10-15T08:39:29.684Z,9.13
2018-10-15T08:41:58.084Z,11.50
2018-10-15T08:44:26.506Z,12.63
2018-10-15T08:46:55.461Z,11.83
2018-10-15T08:49:23.906Z,12.20
2018-10-15T08:51:52.404Z,15.00
2018-10-15T08:54:20.829Z,10.00
2018-10-15T08:56:49.286Z,14.53
2018-10-15T08:59:17.688Z,13.43
2018-10-15T09:01:46.265Z,18.83
2018-10-15T09:04:14.648Z,12.67
2018-10-15T09:06:43.160Z,11.10
2018-10-15T09:09:11.689Z,11.43
2018-10-15T09:11:39.973Z,12.10
2018-10-15T09:14:08.428Z,12.50
2018-10-15T09:16:36.826Z,11.53
2018-10-15T09:19:05.686Z,16.80
2018-10-15T09:21:34.819Z,16.63
2018-10-15T09:24:03.382Z,12.63
2018-10-15T09:26:33.143Z,9.90
2018-10-15T09:29:02.096Z,18.33
2018-10-15T09:31:31.333Z,18.93
2018-10-15T09:33:59.649Z,10.43
2018-10-15T09:36:28.101Z,10.17
2018-10-15T09:38:56.539Z,10.33
2018-10-15T09:41:24.914Z,11.37
2018-10-15T09:43:53.313Z,12.03
2018-10-15T09:46:21.730Z,11.13
2018-10-15T09:48:50.147Z,10.83
2018-10-15T09:51:18.758Z,13.57
2018-10-15T09:53:47.164Z,11.17
2018-10-15T09:56:15.590Z,11.53
2018-10-15T09:58:44.049Z,13.30
2018-10-15T10:01:17.728Z,10.17
2018-10-15T10:03:46.241Z,13.10
2018-10-15T10:06:15.423Z,13.10
2018-10-15T10:08:43.899Z,13.97
2018-10-15T10:11:12.296Z,16.73
2018-10-15T10:13:40.710Z,11.50
2018-10-15T10:16:09.125Z,9.77
2018-10-15T10:18:37.516Z,11.03
2018-10-15T10:21:06.889Z,11.03
2018-10-15T10:23:35.654Z,7.77
2018-10-15T10:26:04.423Z,14.30
2018-10-15T10:28:33.386Z,10.97
2018-10-15T10:31:01.853Z,10.67
2018-10-15T10:37:01.584Z,14.20
2018-10-15T10:39:29.944Z,12.57
2018-10-15T10:41:58.389Z,7.40
2018-10-15T10:44:26.757Z,9.93
2018-10-15T10:46:55.226Z,8.80
2018-10-15T10:49:23.605Z,9.50
2018-10-15T10:51:52.005Z,12.67
2018-10-15T10:54:20.701Z,13.73
2018-10-15T10:56:49.725Z,9.40
2018-10-15T10:59:18.182Z,10.33
2018-10-15T11:01:46.589Z,11.07
2018-10-15T11:04:14.964Z,9.70
2018-10-15T11:06:43.505Z,16.00
2018-10-15T11:09:11.905Z,13.17
2018-10-15T11:11:40.308Z,8.10
2018-10-15T11:14:08.717Z,15.50
2018-10-15T11:16:37.153Z,13.13
2018-10-15T11:19:05.598Z,8.60
2018-10-15T11:21:33.976Z,10.30
2018-10-15T11:24:02.468Z,13.47
2018-10-15T11:26:30.872Z,10.10
2018-10-15T11:28:59.555Z,7.37
2018-10-15T11:31:27.912Z,8.50
2018-10-15T11:33:56.308Z,8.80
2018-10-15T11:36:24.705Z,12.57
2018-10-15T11:38:53.853Z,10.13
2018-10-15T11:41:22.268Z,12.43
2018-10-15T11:43:51.297Z,11.43
2018-10-15T11:46:19.641Z,8.33
2018-10-15T11:48:48.065Z,7.03
2018-10-15T11:51:16.485Z,10.93
2018-10-15T11:53:45.011Z,8.00
2018-10-15T11:56:13.280Z,5.83
2018-10-15T11:58:41.709Z,13.17
2018-10-15T12:01:10.090Z,8.73
2018-10-15T12:03:38.481Z,9.80
2018-10-15T12:06:06.929Z,6.97
2018-10-15T12:08:35.337Z,11.53
2018-10-15T12:11:03.857Z,6.77
2018-10-15T12:13:32.240Z,7.90
2018-10-15T12:16:00.713Z,6.90
2018-10-15T12:18:29.129Z,7.73
2018-10-15T12:20:57.631Z,6.80
2018-10-15T12:23:26.097Z,7.73
2018-10-15T12:25:54.528Z,8.70
2018-10-15T12:28:22.943Z,7.60
2018-10-15T12:30:51.456Z,6.67
2018-10-15T12:33:19.881Z,8.30
2018-10-15T12:35:48.309Z,7.00
2018-10-15T12:38:16.751Z,8.37
2018-10-15T12:40:45.167Z,5.87
2018-10-15T12:43:13.783Z,6.77
2018-10-15T12:45:47.709Z,11.30
2018-10-15T12:48:16.213Z,8.43
2018-10-15T12:50:44.629Z,15.87
2018-10-15T12:53:13.115Z,13.00
2018-10-15T12:55:41.529Z,9.43
2018-10-15T12:58:09.925Z,8.27
2018-10-15T13:00:38.841Z,10.90
2018-10-15T13:03:07.238Z,6.60
2018-10-15T13:05:35.672Z,10.23
2018-10-15T13:08:04.144Z,7.37
2018-10-15T13:10:32.576Z,10.93
2018-10-15T13:13:01.172Z,8.70
2018-10-15T13:15:29.624Z,5.70
2018-10-15T13:17:59.049Z,6.10
2018-10-15T13:20:27.584Z,8.33
2018-10-15T13:22:56.016Z,9.23
2018-10-15T13:25:24.416Z,5.87
2018-10-15T13:27:52.842Z,7.20
2018-10-15T13:30:21.272Z,5.40
2018-10-15T13:32:49.688Z,6.03
2018-10-15T13:35:18.289Z,5.57
2018-10-15T13:37:47.161Z,7.23
2018-10-15T13:40:15.707Z,8.23
2018-10-15T13:42:44.248Z,8.57
2018-10-15T13:45:13.592Z,7.00
2018-10-15T13:47:41.892Z,6.00
2018-10-15T13:50:10.923Z,14.40
2018-10-15T13:52:40.228Z,8.70
2018-10-15T13:55:09.731Z,6.63
2018-10-15T13:57:38.186Z,5.93
2018-10-15T14:00:43.912Z,7.37
2018-10-15T14:03:14.908Z,5.37
2018-10-15T14:05:43.331Z,7.50
2018-10-15T14:08:11.818Z,6.63
2018-10-15T14:10:40.201Z,6.93
2018-10-15T14:13:09.113Z,7.20
2018-10-15T14:15:37.513Z,6.03
2018-10-15T14:18:06.950Z,9.57
2018-10-15T14:20:36.072Z,8.37
2018-10-15T14:23:04.751Z,5.93
2018-10-15T14:25:33.788Z,6.73
2018-10-15T14:28:02.206Z,5.70
2018-10-15T14:30:30.700Z,8.30
2018-10-15T14:32:59.152Z,5.83
2018-10-15T14:35:27.521Z,5.80
2018-10-15T14:37:55.945Z,6.63
2018-10-15T14:40:24.414Z,7.87
2018-10-15T14:42:52.795Z,5.40
2018-10-15T14:45:21.275Z,5.57
2018-10-15T14:47:50.026Z,6.43
2018-10-15T14:50:19.868Z,10.97
2018-10-15T14:52:50.520Z,8.10
2018-10-15T14:55:19.010Z,7.37
2018-10-15T14:57:47.552Z,4.20
2018-10-15T15:00:16.954Z,10.60
2018-10-15T15:02:46.044Z,9.67
2018-10-15T15:05:14.784Z,10.53
2018-10-15T15:07:43.256Z,8.03
2018-10-15T15:10:23.806Z,5.20
2018-10-15T15:13:03.576Z,5.73
2018-10-15T15:15:32.448Z,6.93
2018-10-15T15:18:00.861Z,7.43
2018-10-15T15:20:29.304Z,6.73
2018-10-15T15:22:57.728Z,6.70
2018-10-15T15:25:26.184Z,5.57
2018-10-15T15:27:54.698Z,5.47
2018-10-15T15:30:23.126Z,6.10
2018-10-15T15:32:51.615Z,7.53
2018-10-15T15:35:19.970Z,4.40
2018-10-15T15:37:48.408Z,11.30
2018-10-15T15:40:16.817Z,6.90
2018-10-15T15:42:45.236Z,5.27
2018-10-15T15:45:14.624Z,6.73
2018-10-15T15:47:43.041Z,7.00
2018-10-15T15:50:11.961Z,6.37
2018-10-15T15:52:40.408Z,7.70
2018-10-15T15:55:09.636Z,9.03
2018-10-15T15:57:38.301Z,8.87
2018-10-15T16:00:08.750Z,10.37
2018-10-15T16:02:37.177Z,6.70
2018-10-15T16:05:06.603Z,6.13
2018-10-15T16:07:35.255Z,7.00
2018-10-15T16:10:04.148Z,11.23
2018-10-15T16:12:32.573Z,7.20
2018-10-15T16:15:01.092Z,5.40
2018-10-15T16:17:29.501Z,12.10
2018-10-15T16:19:57.952Z,11.67
2018-10-15T16:22:26.389Z,5.90
2018-10-15T16:24:54.856Z,11.80
2018-10-15T16:27:23.376Z,6.07
2018-10-15T16:29:52.006Z,9.90
2018-10-15T16:32:21.125Z,9.83
2018-10-15T16:34:49.554Z,5.60
2018-10-15T16:37:18.004Z,7.13
2018-10-15T16:39:46.451Z,12.80
2018-10-15T16:42:14.999Z,5.50
2018-10-15T16:44:43.416Z,8.70
2018-10-15T16:47:11.865Z,8.90
2018-10-15T16:49:40.380Z,7.40
2018-10-15T16:52:08.856Z,10.53
2018-10-15T16:54:37.391Z,7.83
2018-10-15T16:57:07.480Z,10.13
2018-10-15T16:59:35.933Z,7.83
2018-10-15T17:02:04.659Z,10.60
2018-10-15T17:04:33.136Z,8.47
2018-10-15T17:07:02.125Z,9.63
2018-10-15T17:09:30.549Z,13.27
2018-10-15T17:11:59.072Z,7.23
2018-10-15T17:14:27.554Z,10.03
2018-10-15T17:16:56.033Z,8.63
2018-10-15T17:19:24.481Z,10.63
2018-10-15T17:21:52.929Z,7.53
2018-10-15T17:24:21.424Z,10.57
2018-10-15T17:26:49.857Z,11.50
2018-10-15T17:29:18.392Z,14.17
2018-10-15T17:31:46.806Z,13.47
2018-10-15T17:34:15.247Z,12.60
2018-10-15T17:36:43.914Z,11.93
2018-10-15T17:39:12.473Z,11.60
2018-10-15T17:41:41.189Z,8.67
2018-10-15T17:44:09.849Z,11.30
2018-10-15T17:46:38.321Z,7.10
2018-10-15T17:49:06.954Z,11.57
2018-10-15T17:51:35.586Z,9.23
2018-10-15T17:54:04.149Z,11.60
2018-10-15T17:56:32.613Z,10.03
2018-10-15T17:59:01.092Z,12.83
2018-10-15T18:01:29.459Z,13.47
2018-10-15T18:03:58.070Z,15.00
2018-10-15T18:06:26.365Z,14.20
2018-10-15T18:08:54.831Z,13.17
2018-10-15T18:11:23.268Z,9.07
2018-10-15T18:13:51.705Z,8.10
2018-10-15T18:16:20.168Z,18.20
2018-10-15T18:18:48.633Z,15.63
2018-10-15T18:21:17.071Z,15.60
2018-10-15T18:23:45.537Z,10.50
2018-10-15T18:26:13.988Z,13.67
2018-10-15T18:28:42.409Z,13.77
2018-10-15T18:31:10.872Z,9.80
2018-10-15T18:33:39.317Z,11.53
2018-10-15T18:36:07.785Z,10.07
2018-10-15T18:38:36.733Z,11.57
2018-10-15T18:41:05.724Z,13.60
2018-10-15T18:43:34.185Z,9.80
2018-10-15T18:46:02.768Z,10.57
2018-10-15T18:48:31.178Z,11.70
2018-10-15T18:51:00.316Z,10.73
2018-10-15T18:53:28.753Z,14.00
2018-10-15T18:55:57.190Z,9.33
2018-10-15T18:58:25.669Z,13.80
2018-10-15T19:00:54.275Z,9.53
2018-10-15T19:03:22.716Z,11.67
2018-10-15T19:05:51.198Z,12.60
2018-10-15T19:08:19.745Z,11.40
2018-10-15T19:10:48.200Z,17.77
2018-10-15T19:13:16.774Z,13.37
2018-10-15T19:15:45.251Z,11.13
2018-10-15T19:18:14.169Z,12.13
2018-10-15T19:20:43.082Z,12.03
2018-10-15T19:23:11.636Z,16.40
2018-10-15T19:25:40.123Z,13.30
2018-10-15T19:28:08.653Z,15.13
2018-10-15T19:30:37.165Z,15.27
2018-10-15T19:33:05.797Z,16.17
2018-10-15T19:35:34.784Z,11.07
2018-10-15T19:38:03.213Z,12.67
2018-10-15T19:40:31.753Z,16.27
2018-10-15T19:43:00.193Z,11.83
2018-10-15T19:45:28.634Z,13.83
2018-10-15T19:47:57.069Z,15.67
2018-10-15T19:50:25.469Z,15.50
2018-10-15T19:52:53.908Z,14.57
2018-10-15T19:55:22.421Z,12.77
2018-10-15T19:57:50.942Z,14.27
2018-10-15T20:00:19.373Z,14.30
2018-10-15T20:02:47.793Z,14.37
2018-10-15T20:05:16.810Z,14.80
2018-10-15T20:07:45.780Z,22.27
2018-10-15T20:10:15.633Z,14.13
2018-10-15T20:12:45.109Z,13.73
2018-10-15T20:15:14.527Z,14.50
2018-10-15T20:17:43.181Z,11.80
2018-10-15T20:20:12.294Z,14.70
2018-10-15T20:22:40.764Z,15.50
2018-10-15T20:25:11.741Z,12.63
2018-10-15T20:27:40.804Z,10.73
2018-10-15T20:30:10.487Z,13.23
2018-10-15T20:32:39.480Z,12.40
2018-10-15T20:35:09.260Z,12.10
2018-10-15T20:37:37.883Z,12.00
2018-10-15T20:40:07.253Z,15.50
2018-10-15T20:42:35.733Z,13.90
2018-10-15T20:45:04.185Z,16.10
2018-10-15T20:47:32.617Z,13.90
2018-10-15T20:50:01.734Z,12.37
2018-10-15T20:52:30.818Z,13.47
2018-10-15T20:55:01.142Z,14.00
2018-10-15T20:57:29.635Z,14.77
2018-10-15T20:59:58.789Z,12.57
2018-10-15T21:02:27.834Z,15.13
2018-10-15T21:04:56.281Z,17.10
2018-10-15T21:07:25.521Z,13.40
2018-10-15T21:09:53.942Z,15.03
2018-10-15T21:12:22.393Z,16.53
2018-10-15T21:14:50.841Z,14.47
2018-10-15T21:17:19.446Z,16.20
2018-10-15T21:19:47.946Z,19.87
2018-10-15T21:22:16.336Z,20.10
2018-10-15T21:24:44.816Z,16.07
2018-10-15T21:27:13.353Z,17.70
2018-10-15T21:29:41.803Z,17.83
2018-10-15T21:32:10.264Z,16.50
2018-10-15T21:34:38.682Z,19.63
2018-10-15T21:37:08.598Z,20.43
2018-10-15T21:39:37.828Z,15.37
2018-10-15T21:42:06.510Z,17.10
2018-10-15T21:44:35.499Z,16.03
2018-10-15T21:47:03.965Z,14.80
2018-10-15T21:49:32.387Z,15.33
2018-10-15T21:52:00.901Z,12.50
2018-10-15T21:54:29.230Z,12.40
2018-10-15T21:56:57.653Z,19.83
2018-10-15T21:59:26.336Z,13.30
2018-10-15T22:01:54.757Z,18.83
2018-10-15T22:04:23.189Z,13.37
2018-10-15T22:06:51.724Z,23.50
2018-10-15T22:09:20.137Z,15.93
2018-10-15T22:11:48.596Z,14.10
2018-10-15T22:14:17.119Z,19.70
2018-10-15T22:16:46.084Z,15.17
2018-10-15T22:19:14.505Z,14.63
2018-10-15T22:21:42.917Z,19.10
2018-10-15T22:24:11.417Z,16.97
2018-10-15T22:26:40.249Z,14.70
2018-10-15T22:29:09.552Z,19.00
2018-10-15T22:31:38.727Z,22.67
2018-10-15T22:34:08.565Z,20.37
2018-10-15T22:36:37.123Z,18.60
2018-10-15T22:39:09.699Z,18.47
2018-10-15T22:41:38.131Z,19.10
2018-10-15T22:44:06.964Z,14.37
2018-10-15T22:46:35.570Z,18.43
2018-10-15T22:49:04.584Z,21.30
2018-10-15T22:51:32.989Z,18.67
2018-10-15T22:54:01.429Z,16.77
2018-10-15T22:56:29.849Z,18.03
2018-10-15T22:58:58.272Z,17.87
2018-10-15T23:01:26.856Z,17.80
2018-10-15T23:03:55.296Z,20.80
2018-10-15T23:06:23.769Z,18.27
2018-10-15T23:08:52.180Z,21.07
2018-10-15T23:11:20.757Z,15.70
2018-10-15T23:13:49.165Z,17.20
2018-10-15T23:16:17.581Z,13.70
2018-10-15T23:18:46.044Z,16.60
2018-10-15T23:21:14.446Z,21.63
2018-10-15T23:23:42.861Z,14.97
2018-10-15T23:26:11.287Z,13.20
2018-10-15T23:28:39.776Z,18.53
2018-10-15T23:31:13.326Z,13.50
2018-10-15T23:33:42.733Z,16.80
2018-10-15T23:36:11.124Z,16.23
2018-10-15T23:38:39.588Z,16.10
2018-10-15T23:41:08.972Z,21.73
2018-10-15T23:43:37.792Z,19.73
2018-10-15T23:46:07.056Z,22.20
2018-10-15T23:48:35.745Z,15.47
2018-10-15T23:51:04.184Z,19.73
2018-10-15T23:53:32.587Z,19.13
2018-10-15T23:56:00.993Z,16.53
2018-10-15T23:58:29.392Z,18.50
